createdAt,value
2022-12-01T00:01:34.263Z,74.01
2022-12-01T00:04:02.269Z,73.97
2022-12-01T00:06:29.937Z,73.61
2022-12-01T00:09:19.686Z,74.35
2022-12-01T00:11:48.738Z,74.26
2022-12-01T00:14:17.571Z,74.74
2022-12-01T00:16:45.942Z,74.48
2022-12-01T00:19:14.212Z,74.73
2022-12-01T00:21:41.933Z,74.22
2022-12-01T00:24:11.894Z,74.10
2022-12-01T00:26:40.088Z,73.99
2022-12-01T00:29:09.362Z,74.18
2022-12-01T00:31:36.971Z,73.30
2022-12-01T00:34:09.687Z,73.61
2022-12-01T00:36:39.506Z,72.04
2022-12-01T00:39:08.742Z,72.60
2022-12-01T00:41:36.394Z,72.35
2022-12-01T00:44:04.910Z,72.95
2022-12-01T00:46:32.587Z,72.71
2022-12-01T00:49:00.494Z,70.23
2022-12-01T00:51:28.179Z,70.42
2022-12-01T00:53:56.251Z,70.28
2022-12-01T00:56:24.028Z,70.64
2022-12-01T00:58:51.877Z,70.87
2022-12-01T01:01:19.727Z,70.71
2022-12-01T01:03:48.045Z,70.10
2022-12-01T01:06:16.647Z,70.05
2022-12-01T01:08:46.290Z,70.65
2022-12-01T01:11:13.963Z,71.16
2022-12-01T01:13:42.029Z,71.17
2022-12-01T01:16:20.139Z,70.70
2022-12-01T01:18:49.177Z,70.11
2022-12-01T01:21:21.074Z,70.02
2022-12-01T01:23:50.736Z,70.23
2022-12-01T01:26:21.151Z,70.91
2022-12-01T01:28:50.055Z,70.30
2022-12-01T01:31:23.638Z,69.82
2022-12-01T01:33:51.995Z,69.96
2022-12-01T01:36:20.104Z,70.19
2022-12-01T01:38:51.654Z,69.31
2022-12-01T01:41:21.066Z,68.84
2022-12-01T01:44:03.153Z,68.59
2022-12-01T01:46:34.079Z,68.62
2022-12-01T01:49:08.490Z,69.42
2022-12-01T01:51:43.690Z,69.48
2022-12-01T01:54:29.451Z,70.42
2022-12-01T01:57:00.197Z,70.71
2022-12-01T01:59:47.277Z,70.47
2022-12-01T02:02:15.516Z,70.68
2022-12-01T02:04:51.156Z,70.35
2022-12-01T02:07:19.886Z,69.92
2022-12-01T02:09:48.142Z,70.77
2022-12-01T02:12:38.410Z,70.66
2022-12-01T02:15:44.513Z,71.11
2022-12-01T02:18:40.027Z,70.89
2022-12-01T02:21:32.138Z,71.29
2022-12-01T02:24:46.832Z,71.65
2022-12-01T02:27:57.723Z,72.00
2022-12-01T02:31:08.922Z,72.60
2022-12-01T02:33:52.600Z,72.33
2022-12-01T02:36:37.289Z,72.54
2022-12-01T02:39:14.649Z,72.22
2022-12-01T02:41:59.009Z,71.79
2022-12-01T02:44:50.063Z,71.84
2022-12-01T02:47:19.638Z,71.10
2022-12-01T02:49:51.566Z,72.22
2022-12-01T02:52:22.319Z,71.47
2022-12-01T02:54:51.581Z,71.57
2022-12-01T02:57:19.916Z,72.20
2022-12-01T02:59:54.546Z,72.14
2022-12-01T03:02:56.297Z,72.43
2022-12-01T03:06:18.123Z,72.52
2022-12-01T03:09:12.924Z,71.92
2022-12-01T03:11:58.709Z,73.06
2022-12-01T03:15:05.453Z,73.14
2022-12-01T03:18:06.916Z,73.50
2022-12-01T03:20:58.405Z,73.54
2022-12-01T03:23:31.654Z,72.73
2022-12-01T03:26:07.147Z,73.11
2022-12-01T03:28:42.670Z,71.87
2022-12-01T03:31:17.309Z,72.12
2022-12-01T03:33:54.764Z,71.83
2022-12-01T03:36:35.622Z,72.53
2022-12-01T03:39:11.450Z,72.60
2022-12-01T03:41:47.108Z,72.52
2022-12-01T03:44:25.813Z,72.77
2022-12-01T03:47:14.588Z,72.18
2022-12-01T03:49:44.118Z,72.04
2022-12-01T03:52:37.973Z,71.88
2022-12-01T03:55:19.872Z,71.44
2022-12-01T03:58:23.065Z,71.57
2022-12-01T04:00:57.643Z,71.91
2022-12-01T04:03:26.779Z,71.30
2022-12-01T04:05:55.616Z,71.84
2022-12-01T04:08:23.175Z,71.86
2022-12-01T04:10:51.303Z,72.50
2022-12-01T04:13:25.898Z,71.77
2022-12-01T04:15:55.515Z,71.95
2022-12-01T04:18:23.125Z,71.56
2022-12-01T04:20:51.272Z,71.60
2022-12-01T04:23:37.287Z,71.22
2022-12-01T04:26:06.689Z,71.90
2022-12-01T04:28:35.651Z,72.10
2022-12-01T04:31:03.677Z,71.47
2022-12-01T04:33:31.289Z,70.98
2022-12-01T04:36:00.747Z,71.40
2022-12-01T04:38:30.746Z,70.59
2022-12-01T04:40:59.445Z,70.88
2022-12-01T04:43:26.931Z,70.97
2022-12-01T04:45:54.873Z,70.25
2022-12-01T04:48:22.432Z,70.90
2022-12-01T04:50:50.393Z,77.24
2022-12-01T04:53:17.883Z,74.60
2022-12-01T04:55:45.847Z,72.23
2022-12-01T04:58:13.398Z,72.54
2022-12-01T05:00:41.231Z,68.15
2022-12-01T05:03:13.659Z,64.13
2022-12-01T05:05:43.085Z,64.00
2022-12-01T05:08:11.142Z,64.10
2022-12-01T05:10:39.205Z,64.30
2022-12-01T05:13:07.157Z,65.33
2022-12-01T05:15:35.075Z,65.57
2022-12-01T05:18:02.601Z,65.59
2022-12-01T05:20:49.154Z,65.97
2022-12-01T05:23:17.277Z,67.35
2022-12-01T05:25:45.167Z,68.48
2022-12-01T05:28:12.731Z,68.35
2022-12-01T05:30:40.990Z,69.80
2022-12-01T05:33:08.783Z,69.51
2022-12-01T05:35:36.902Z,69.64
2022-12-01T05:38:07.955Z,70.08
2022-12-01T05:40:37.294Z,69.65
2022-12-01T05:43:05.116Z,70.37
2022-12-01T05:45:34.542Z,70.54
2022-12-01T05:48:03.149Z,70.77
2022-12-01T05:50:31.575Z,70.63
2022-12-01T05:52:59.242Z,70.57
2022-12-01T05:55:27.182Z,70.41
2022-12-01T05:57:54.926Z,70.65
2022-12-01T06:00:22.931Z,70.03
2022-12-01T06:02:50.605Z,70.46
2022-12-01T06:05:18.572Z,70.40
2022-12-01T06:07:46.266Z,70.71
2022-12-01T06:10:14.371Z,71.14
2022-12-01T06:12:45.527Z,70.65
2022-12-01T06:15:14.250Z,71.17
2022-12-01T06:17:41.855Z,71.16
2022-12-01T06:20:11.243Z,70.66
2022-12-01T06:22:38.877Z,70.15
2022-12-01T06:25:07.622Z,70.20
2022-12-01T06:27:35.181Z,69.71
2022-12-01T06:30:04.659Z,68.77
2022-12-01T06:32:32.535Z,68.52
2022-12-01T06:35:00.414Z,68.53
2022-12-01T06:37:28.808Z,68.34
2022-12-01T06:39:56.719Z,68.56
2022-12-01T06:42:24.266Z,67.38
2022-12-01T06:44:52.112Z,67.62
2022-12-01T06:47:19.695Z,67.28
2022-12-01T06:49:47.945Z,67.68
2022-12-01T06:52:15.715Z,67.41
2022-12-01T06:54:43.530Z,67.87
2022-12-01T06:57:11.540Z,68.20
2022-12-01T06:59:40.284Z,68.88
2022-12-01T07:02:13.609Z,68.78
2022-12-01T07:04:41.694Z,68.62
2022-12-01T07:07:10.111Z,68.26
2022-12-01T07:09:38.193Z,68.71
2022-12-01T07:12:08.056Z,69.05
2022-12-01T07:14:36.401Z,68.68
2022-12-01T07:17:04.244Z,68.14
2022-12-01T07:19:32.201Z,68.81
2022-12-01T07:21:59.628Z,68.41
2022-12-01T07:24:28.266Z,67.97
2022-12-01T07:26:56.009Z,68.17
2022-12-01T07:29:23.901Z,68.06
2022-12-01T07:31:51.480Z,67.61
2022-12-01T07:34:19.448Z,68.21
2022-12-01T07:36:46.975Z,67.28
2022-12-01T07:39:14.907Z,67.58
2022-12-01T07:41:42.519Z,67.31
2022-12-01T07:44:11.296Z,67.50
2022-12-01T07:46:38.959Z,67.03
2022-12-01T07:49:08.508Z,66.38
2022-12-01T07:51:36.225Z,67.33
2022-12-01T07:54:06.445Z,66.10
2022-12-01T07:56:34.740Z,65.81
2022-12-01T07:59:02.793Z,65.35
2022-12-01T08:01:30.513Z,66.21
2022-12-01T08:04:00.613Z,65.62
2022-12-01T08:06:28.381Z,65.54
2022-12-01T08:08:56.335Z,65.41
2022-12-01T08:11:29.309Z,65.86
2022-12-01T08:13:57.793Z,65.25
2022-12-01T08:16:25.945Z,65.68
2022-12-01T08:18:54.514Z,64.95
2022-12-01T08:21:24.177Z,65.01
2022-12-01T08:23:57.794Z,64.79
2022-12-01T08:26:26.827Z,64.08
2022-12-01T08:28:54.878Z,64.45
2022-12-01T08:31:32.102Z,63.98
2022-12-01T08:34:00.274Z,63.32
2022-12-01T08:36:28.184Z,63.41
2022-12-01T08:38:56.659Z,63.77
2022-12-01T08:41:25.185Z,62.38
2022-12-01T08:43:58.408Z,62.56
2022-12-01T08:46:32.166Z,62.88
2022-12-01T08:49:00.710Z,61.80
2022-12-01T08:51:28.824Z,62.92
2022-12-01T08:53:59.661Z,62.57
2022-12-01T08:56:38.525Z,62.20
2022-12-01T08:59:07.163Z,63.04
2022-12-01T09:01:35.358Z,63.87
2022-12-01T09:04:07.792Z,64.39
2022-12-01T09:06:43.509Z,65.61
2022-12-01T09:09:19.508Z,65.12
2022-12-01T09:11:48.602Z,65.58
2022-12-01T09:14:18.629Z,65.69
2022-12-01T09:16:49.871Z,65.51
2022-12-01T09:19:24.188Z,65.32
2022-12-01T09:21:52.947Z,66.11
2022-12-01T09:24:20.792Z,66.28
2022-12-01T09:26:48.355Z,66.71
2022-12-01T09:29:17.347Z,67.07
2022-12-01T09:31:45.740Z,67.31
2022-12-01T09:34:18.283Z,67.09
2022-12-01T09:36:47.684Z,67.53
2022-12-01T09:39:20.863Z,67.49
2022-12-01T09:41:54.601Z,67.65
2022-12-01T09:44:57.245Z,67.41
2022-12-01T09:47:31.452Z,67.62
2022-12-01T09:50:24.083Z,67.25
2022-12-01T09:53:03.795Z,66.25
2022-12-01T09:55:34.016Z,66.47
2022-12-01T09:58:05.722Z,65.18
2022-12-01T10:00:42.309Z,65.81
2022-12-01T10:03:18.556Z,64.92
2022-12-01T10:09:25.234Z,63.40
2022-12-01T10:12:02.054Z,63.27
2022-12-01T10:14:33.903Z,63.55
2022-12-01T10:17:38.274Z,63.66
2022-12-01T10:20:21.506Z,64.85
2022-12-01T10:23:28.789Z,65.74
2022-12-01T10:26:17.829Z,67.62
2022-12-01T10:29:26.011Z,68.17
2022-12-01T10:32:03.050Z,69.23
2022-12-01T10:34:37.644Z,70.24
2022-12-01T10:37:05.870Z,69.87
2022-12-01T10:39:55.306Z,69.81
2022-12-01T10:42:37.469Z,70.69
2022-12-01T10:45:14.879Z,72.25
2022-12-01T10:48:11.052Z,72.44
2022-12-01T10:50:39.698Z,72.92
2022-12-01T10:53:26.407Z,72.98
2022-12-01T10:56:16.438Z,73.93
2022-12-01T10:58:52.481Z,74.38
2022-12-01T11:01:37.076Z,74.64
2022-12-01T11:04:47.874Z,75.74
2022-12-01T11:07:46.161Z,76.49
2022-12-01T11:10:26.551Z,76.94
2022-12-01T11:12:56.478Z,76.38
2022-12-01T11:15:56.805Z,75.59
2022-12-01T11:18:39.226Z,74.65
2022-12-01T11:21:15.069Z,74.14
2022-12-01T11:23:48.972Z,73.42
2022-12-01T11:26:33.506Z,73.01
2022-12-01T11:29:28.559Z,72.74
2022-12-01T11:31:57.781Z,72.74
2022-12-01T11:34:38.053Z,73.34
2022-12-01T11:37:15.791Z,73.68
2022-12-01T11:39:47.962Z,74.28
2022-12-01T11:42:24.552Z,74.75
2022-12-01T11:45:21.356Z,74.87
2022-12-01T11:48:06.626Z,74.90
2022-12-01T11:50:39.701Z,74.85
2022-12-01T11:53:32.052Z,74.56
2022-12-01T11:56:29.002Z,74.48
2022-12-01T11:59:13.225Z,74.75
2022-12-01T12:02:42.039Z,74.35
2022-12-01T12:05:27.318Z,75.13
2022-12-01T12:08:01.190Z,75.59
2022-12-01T12:10:28.651Z,75.79
2022-12-01T12:13:37.224Z,76.29
2022-12-01T12:16:30.302Z,76.87
2022-12-01T12:20:06.174Z,77.17
2022-12-01T12:23:03.976Z,78.00
2022-12-01T12:26:03.794Z,79.05
2022-12-01T12:29:36.280Z,78.67
2022-12-01T12:32:47.193Z,78.84
2022-12-01T12:35:49.940Z,77.74
2022-12-01T12:38:54.618Z,78.11
2022-12-01T12:42:01.300Z,78.83
2022-12-01T12:44:51.781Z,76.94
2022-12-01T12:47:56.588Z,76.81
2022-12-01T12:50:48.223Z,76.90
2022-12-01T12:53:28.103Z,75.96
2022-12-01T12:56:04.833Z,77.15
2022-12-01T12:58:50.021Z,76.27
2022-12-01T13:01:44.699Z,76.11
2022-12-01T13:04:50.640Z,76.37
2022-12-01T13:07:50.267Z,77.65
2022-12-01T13:10:38.118Z,78.12
2022-12-01T13:13:59.610Z,78.04
2022-12-01T13:16:43.128Z,77.83
2022-12-01T13:19:37.611Z,77.91
2022-12-01T13:22:07.951Z,77.56
2022-12-01T13:24:36.073Z,78.30
2022-12-01T13:27:11.385Z,77.72
2022-12-01T13:29:49.763Z,77.57
2022-12-01T13:32:40.474Z,77.33
2022-12-01T13:35:35.069Z,78.16
2022-12-01T13:38:34.448Z,78.43
2022-12-01T13:41:18.235Z,77.93
2022-12-01T13:44:21.052Z,77.79
2022-12-01T13:46:49.113Z,76.71
2022-12-01T13:49:42.711Z,76.33
2022-12-01T13:52:23.352Z,75.21
2022-12-01T13:55:09.506Z,75.57
2022-12-01T13:57:57.487Z,74.68
2022-12-01T14:00:29.937Z,73.67
2022-12-01T14:03:13.217Z,74.41
2022-12-01T14:05:40.794Z,73.01
2022-12-01T14:09:04.700Z,73.41
2022-12-01T14:11:34.626Z,73.12
2022-12-01T14:14:25.945Z,72.72
2022-12-01T14:16:58.731Z,72.92
2022-12-01T14:19:37.658Z,73.41
2022-12-01T14:22:07.586Z,73.41
2022-12-01T14:24:42.258Z,72.92
2022-12-01T14:27:13.968Z,73.20
2022-12-01T14:29:43.540Z,73.75
2022-12-01T14:32:17.056Z,74.29
2022-12-01T14:34:45.304Z,74.42
2022-12-01T14:37:22.408Z,74.70
2022-12-01T14:39:58.075Z,74.30
2022-12-01T14:42:49.914Z,74.04
2022-12-01T14:45:39.122Z,73.77
2022-12-01T14:48:17.232Z,73.98
2022-12-01T14:50:51.861Z,73.70
2022-12-01T14:53:27.297Z,74.12
2022-12-01T14:56:08.510Z,74.04
2022-12-01T14:58:37.249Z,74.06
2022-12-01T15:01:12.790Z,75.41
2022-12-01T15:03:56.993Z,74.47
2022-12-01T15:06:28.220Z,74.15
2022-12-01T15:09:36.039Z,73.95
2022-12-01T15:12:07.813Z,73.77
2022-12-01T15:14:39.416Z,72.73
2022-12-01T15:17:09.007Z,73.30
2022-12-01T15:19:40.205Z,72.83
2022-12-01T15:22:18.151Z,71.45
2022-12-01T15:24:47.117Z,71.00
2022-12-01T15:27:31.838Z,71.07
2022-12-01T15:30:04.577Z,70.84
2022-12-01T15:32:39.725Z,71.25
2022-12-01T15:35:23.151Z,70.19
2022-12-01T15:37:52.707Z,70.78
2022-12-01T15:43:33.057Z,70.33
2022-12-01T15:46:18.833Z,70.05
2022-12-01T15:48:46.824Z,70.38
2022-12-01T15:51:27.712Z,70.68
2022-12-01T15:54:01.406Z,71.15
2022-12-01T15:56:40.606Z,71.71
2022-12-01T15:59:12.922Z,71.35
2022-12-01T16:01:43.765Z,72.35
2022-12-01T16:04:25.092Z,73.04
2022-12-01T16:07:07.056Z,72.86
2022-12-01T16:10:02.905Z,72.65
2022-12-01T16:12:36.817Z,72.92
2022-12-01T16:15:15.494Z,72.04
2022-12-01T16:17:49.902Z,71.07
2022-12-01T16:20:25.055Z,70.76
2022-12-01T16:23:03.144Z,70.62
2022-12-01T16:25:43.623Z,70.17
2022-12-01T16:28:37.749Z,69.54
2022-12-01T16:31:11.274Z,69.29
2022-12-01T16:33:42.462Z,69.21
2022-12-01T16:36:10.409Z,69.15
2022-12-01T16:38:38.615Z,69.67
2022-12-01T16:41:38.273Z,68.64
2022-12-01T16:44:27.586Z,68.03
2022-12-01T16:46:54.254Z,67.88
2022-12-01T16:49:22.261Z,67.55
2022-12-01T16:51:56.130Z,67.16
2022-12-01T16:54:25.411Z,66.75
2022-12-01T16:56:54.162Z,66.18
2022-12-01T16:59:22.297Z,66.47
2022-12-01T17:01:50.224Z,66.68
2022-12-01T17:04:18.174Z,66.78
2022-12-01T17:06:46.099Z,67.48
2022-12-01T17:09:14.062Z,67.21
2022-12-01T17:11:42.286Z,67.57
2022-12-01T17:14:10.243Z,67.81
2022-12-01T17:16:38.592Z,68.66
2022-12-01T17:19:06.298Z,68.72
2022-12-01T17:21:34.859Z,69.38
2022-12-01T17:24:02.404Z,69.69
2022-12-01T17:26:30.658Z,69.92
2022-12-01T17:28:58.210Z,70.31
2022-12-01T17:31:26.468Z,69.79
2022-12-01T17:33:54.777Z,69.50
2022-12-01T17:36:22.769Z,69.89
2022-12-01T17:38:51.112Z,70.40
2022-12-01T17:41:26.159Z,69.92
2022-12-01T17:43:53.891Z,70.91
2022-12-01T17:46:21.973Z,71.29
2022-12-01T17:48:49.934Z,71.05
2022-12-01T17:51:17.857Z,71.51
2022-12-01T17:53:45.656Z,71.62
2022-12-01T17:56:17.019Z,72.35
2022-12-01T17:58:45.084Z,72.70
2022-12-01T18:01:18.001Z,72.87
2022-12-01T18:03:48.087Z,72.53
2022-12-01T18:06:21.704Z,73.42
2022-12-01T18:08:49.764Z,74.10
2022-12-01T18:11:19.148Z,74.70
2022-12-01T18:13:54.135Z,75.47
2022-12-01T18:16:33.118Z,75.52
2022-12-01T18:19:05.381Z,75.18
2022-12-01T18:21:35.078Z,75.51
2022-12-01T18:24:05.787Z,75.47
2022-12-01T18:26:44.221Z,75.28
2022-12-01T18:29:18.746Z,75.56
2022-12-01T18:31:48.318Z,76.38
2022-12-01T18:34:19.335Z,76.61
2022-12-01T18:36:48.114Z,77.05
2022-12-01T18:39:16.200Z,78.05
2022-12-01T18:41:44.423Z,77.68
2022-12-01T18:44:12.851Z,79.04
2022-12-01T18:46:40.968Z,78.28
2022-12-01T18:49:09.195Z,78.43
2022-12-01T18:51:38.908Z,79.26
2022-12-01T18:54:09.219Z,79.81
2022-12-01T18:56:37.474Z,79.58
2022-12-01T18:59:07.935Z,79.44
2022-12-01T19:01:40.409Z,78.15
2022-12-01T19:04:09.813Z,77.32
2022-12-01T19:06:39.075Z,77.40
2022-12-01T19:09:10.329Z,77.27
2022-12-01T19:11:40.599Z,77.10
2022-12-01T19:14:15.737Z,77.00
2022-12-01T19:16:44.933Z,77.37
2022-12-01T19:19:12.693Z,77.04
2022-12-01T19:21:40.851Z,77.56
2022-12-01T19:24:08.901Z,78.10
2022-12-01T19:26:37.168Z,77.87
2022-12-01T19:29:04.925Z,77.17
2022-12-01T19:31:34.014Z,78.58
2022-12-01T19:34:04.425Z,78.69
2022-12-01T19:36:32.588Z,78.81
2022-12-01T19:39:04.044Z,78.23
2022-12-01T19:41:38.679Z,78.63
2022-12-01T19:44:07.060Z,78.70
2022-12-01T19:46:35.026Z,78.17
2022-12-01T19:49:03.767Z,79.30
2022-12-01T19:51:38.717Z,78.47
2022-12-01T19:54:13.457Z,78.65
2022-12-01T19:56:41.431Z,78.61
2022-12-01T19:59:11.365Z,78.98
2022-12-01T20:01:40.507Z,78.70
2022-12-01T20:04:08.437Z,77.85
2022-12-01T20:06:38.067Z,79.09
2022-12-01T20:09:07.331Z,78.83
2022-12-01T20:11:35.861Z,78.95
2022-12-01T20:14:08.025Z,78.34
2022-12-01T20:16:36.373Z,77.93
2022-12-01T20:19:05.738Z,77.91
2022-12-01T20:21:42.350Z,77.85
2022-12-01T20:24:17.041Z,77.49
2022-12-01T20:26:53.110Z,77.63
2022-12-01T20:29:27.458Z,76.72
2022-12-01T20:31:58.472Z,76.44
2022-12-01T20:34:33.907Z,76.32
2022-12-01T20:37:02.505Z,76.38
2022-12-01T20:39:32.520Z,76.05
2022-12-01T20:42:00.559Z,76.25
2022-12-01T20:44:28.185Z,75.41
2022-12-01T20:46:56.182Z,75.42
2022-12-01T20:49:24.212Z,75.71
2022-12-01T20:51:52.162Z,73.98
2022-12-01T20:54:29.560Z,74.75
2022-12-01T20:56:59.203Z,74.02
2022-12-01T20:59:27.971Z,73.95
2022-12-01T21:01:56.320Z,73.97
2022-12-01T21:04:23.937Z,73.88
2022-12-01T21:06:55.779Z,73.85
2022-12-01T21:09:23.351Z,74.75
2022-12-01T21:12:10.283Z,74.59
2022-12-01T21:15:12.159Z,74.90
2022-12-01T21:17:46.725Z,74.41
2022-12-01T21:20:30.952Z,74.38
2022-12-01T21:23:12.899Z,73.83
2022-12-01T21:25:41.781Z,74.11
2022-12-01T21:28:24.162Z,74.06
2022-12-01T21:31:01.985Z,74.32
2022-12-01T21:33:36.802Z,74.01
2022-12-01T21:36:19.608Z,74.85
2022-12-01T21:38:54.827Z,74.02
2022-12-01T21:41:27.822Z,74.28
2022-12-01T21:44:01.273Z,75.21
2022-12-01T21:46:29.830Z,75.12
2022-12-01T21:48:57.796Z,75.38
2022-12-01T21:51:26.129Z,75.53
2022-12-01T21:53:56.553Z,75.14
2022-12-01T21:56:28.434Z,74.82
2022-12-01T21:59:02.692Z,74.97
2022-12-01T22:01:32.196Z,75.00
2022-12-01T22:04:05.651Z,74.92
2022-12-01T22:06:37.924Z,74.91
2022-12-01T22:09:30.942Z,74.36
2022-12-01T22:12:20.251Z,74.42
2022-12-01T22:14:48.989Z,74.70
2022-12-01T22:17:22.020Z,74.68
2022-12-01T22:20:02.392Z,73.55
2022-12-01T22:22:32.855Z,73.92
2022-12-01T22:25:20.202Z,73.41
2022-12-01T22:27:47.768Z,73.27
2022-12-01T22:30:24.208Z,73.58
2022-12-01T22:33:01.062Z,73.89
2022-12-01T22:35:48.398Z,73.68
2022-12-01T22:38:35.231Z,74.10
2022-12-01T22:41:15.877Z,74.25
2022-12-01T22:44:04.926Z,74.52
2022-12-01T22:46:39.960Z,74.44
2022-12-01T22:49:10.272Z,75.07
2022-12-01T22:52:01.724Z,75.04
2022-12-01T22:54:39.060Z,74.78
2022-12-01T22:57:25.123Z,74.31
2022-12-01T22:59:54.196Z,74.25
2022-12-01T23:02:23.004Z,74.69
2022-12-01T23:05:14.520Z,74.64
2022-12-01T23:07:43.681Z,74.72
2022-12-01T23:10:21.149Z,74.47
2022-12-01T23:12:52.228Z,74.43
2022-12-01T23:15:41.141Z,74.19
2022-12-01T23:18:22.365Z,73.82
2022-12-01T23:20:53.886Z,73.44
2022-12-01T23:23:27.009Z,73.38
2022-12-01T23:25:55.903Z,73.16
2022-12-01T23:28:25.241Z,73.58
2022-12-01T23:30:57.104Z,73.55
2022-12-01T23:33:35.717Z,73.80
2022-12-01T23:36:11.859Z,73.60
2022-12-01T23:38:43.859Z,73.99
2022-12-01T23:41:33.549Z,74.27
2022-12-01T23:44:12.328Z,74.23
2022-12-01T23:46:40.170Z,74.00
2022-12-01T23:49:15.737Z,74.47
2022-12-01T23:51:51.621Z,74.36
2022-12-01T23:54:30.075Z,74.38
2022-12-01T23:57:09.952Z,74.37
2022-12-01T23:59:38.600Z,74.55
